createdAt,value
2023-05-12T00:00:39.854Z,1.23
2023-05-12T00:03:09.381Z,0.75
2023-05-12T00:05:41.497Z,0.80
2023-05-12T00:08:10.650Z,0.73
2023-05-12T00:10:39.770Z,0.80
2023-05-12T00:13:10.200Z,0.77
2023-05-12T00:15:39.558Z,0.90
2023-05-12T00:18:08.589Z,0.80
2023-05-12T00:20:37.965Z,0.60
2023-05-12T00:23:07.108Z,0.68
2023-05-12T00:25:36.366Z,0.60
2023-05-12T00:28:05.670Z,0.77
2023-05-12T00:30:34.946Z,0.70
2023-05-12T00:33:04.139Z,0.82
2023-05-12T00:35:36.335Z,0.80
2023-05-12T00:38:05.397Z,0.80
2023-05-12T00:40:35.005Z,0.80
2023-05-12T00:43:05.938Z,0.73
2023-05-12T00:45:35.369Z,0.80
2023-05-12T00:48:08.513Z,0.80
2023-05-12T00:50:37.831Z,0.60
2023-05-12T00:53:10.669Z,1.00
2023-05-12T00:55:39.904Z,0.70
2023-05-12T00:58:09.817Z,0.98
2023-05-12T01:00:42.893Z,0.88
2023-05-12T01:03:12.285Z,0.90
2023-05-12T01:05:49.116Z,0.98
2023-05-12T01:08:22.329Z,0.80
2023-05-12T01:10:52.249Z,0.90
2023-05-12T01:13:25.940Z,1.00
2023-05-12T01:15:59.782Z,0.90
2023-05-12T01:18:36.015Z,0.60
2023-05-12T01:21:06.696Z,0.55
2023-05-12T01:23:41.001Z,0.70
2023-05-12T01:26:11.153Z,0.90
2023-05-12T01:28:42.071Z,0.85
2023-05-12T01:31:11.551Z,0.85
2023-05-12T01:33:47.545Z,0.75
2023-05-12T01:36:37.561Z,0.80
2023-05-12T01:39:15.833Z,0.70
2023-05-12T01:42:00.625Z,0.75
2023-05-12T01:44:32.759Z,1.05
2023-05-12T01:47:05.764Z,0.90
2023-05-12T01:49:35.193Z,0.60
2023-05-12T01:52:08.011Z,0.70
2023-05-12T01:54:40.507Z,0.70
2023-05-12T01:57:25.814Z,0.90
2023-05-12T02:00:05.502Z,0.70
2023-05-12T02:02:45.427Z,0.80
2023-05-12T02:05:56.448Z,0.70
2023-05-12T02:08:32.322Z,0.85
2023-05-12T02:11:09.288Z,0.95
2023-05-12T02:13:39.576Z,1.10
2023-05-12T02:16:12.594Z,0.85
2023-05-12T02:18:50.063Z,0.68
2023-05-12T02:21:24.656Z,0.88
2023-05-12T02:23:58.339Z,0.65
2023-05-12T02:26:40.681Z,0.73
2023-05-12T02:29:19.393Z,1.00
2023-05-12T02:31:54.398Z,0.98
2023-05-12T02:34:24.235Z,0.80
2023-05-12T02:36:56.379Z,0.80
2023-05-12T02:39:31.136Z,1.10
2023-05-12T02:42:06.873Z,0.95
2023-05-12T02:44:51.574Z,0.70
2023-05-12T02:47:36.945Z,0.90
2023-05-12T02:50:12.054Z,0.85
2023-05-12T02:52:55.215Z,1.02
2023-05-12T02:55:59.074Z,0.90
2023-05-12T02:58:30.569Z,0.90
2023-05-12T03:01:40.877Z,0.80
2023-05-12T03:04:18.733Z,1.40
2023-05-12T03:07:27.479Z,0.90
2023-05-12T03:10:33.071Z,1.05
2023-05-12T03:13:27.329Z,1.17
2023-05-12T03:16:26.230Z,0.88
2023-05-12T03:19:11.781Z,1.17
2023-05-12T03:21:59.002Z,0.90
2023-05-12T03:25:18.321Z,1.33
2023-05-12T03:27:56.053Z,1.48
2023-05-12T03:30:28.634Z,3.08
2023-05-12T03:33:42.866Z,3.50
2023-05-12T03:36:51.686Z,4.13
2023-05-12T03:40:08.922Z,1.92
2023-05-12T03:43:15.621Z,2.47
2023-05-12T03:59:41.258Z,3.83
2023-05-12T04:14:05.670Z,1.98
2023-05-12T04:31:28.719Z,1.30
2023-05-12T04:34:56.502Z,1.45
2023-05-12T04:41:22.449Z,1.65
2023-05-12T04:44:02.460Z,1.73
2023-05-12T04:46:44.262Z,1.20
2023-05-12T04:49:37.162Z,1.15
2023-05-12T04:52:16.187Z,1.35
2023-05-12T04:54:47.954Z,1.00
2023-05-12T04:57:27.374Z,0.88
2023-05-12T05:00:01.852Z,1.52
2023-05-12T05:02:41.025Z,1.15
2023-05-12T05:05:15.487Z,1.23
2023-05-12T05:07:47.882Z,1.10
2023-05-12T05:10:24.328Z,1.02
2023-05-12T05:12:57.019Z,1.10
2023-05-12T05:15:36.999Z,1.40
2023-05-12T05:18:07.960Z,1.45
2023-05-12T05:20:40.606Z,1.00
2023-05-12T05:23:13.254Z,1.10
2023-05-12T05:25:43.770Z,1.23
2023-05-12T05:28:15.742Z,1.13
2023-05-12T05:30:57.892Z,1.50
2023-05-12T05:33:29.941Z,1.70
2023-05-12T05:36:14.476Z,1.35
2023-05-12T05:39:54.056Z,1.80
2023-05-12T05:42:44.914Z,1.63
2023-05-12T05:49:04.093Z,1.30
2023-05-12T05:51:42.805Z,1.17
2023-05-12T05:54:32.314Z,1.20
2023-05-12T05:57:03.186Z,1.20
2023-05-12T05:59:35.859Z,1.02
2023-05-12T06:02:06.986Z,1.20
2023-05-12T06:04:39.949Z,1.10
2023-05-12T06:07:20.992Z,1.20
2023-05-12T06:09:55.401Z,1.40
2023-05-12T06:12:29.249Z,1.25
2023-05-12T06:15:04.664Z,1.30
2023-05-12T06:17:37.333Z,1.45
2023-05-12T06:20:10.983Z,1.17
2023-05-12T06:22:56.741Z,1.80
2023-05-12T06:25:35.267Z,1.48
2023-05-12T06:28:07.117Z,1.40
2023-05-12T06:30:41.352Z,1.30
2023-05-12T06:33:40.843Z,1.45
2023-05-12T06:36:00.522Z,1.20
2023-05-12T06:38:37.363Z,1.33
2023-05-12T06:41:12.475Z,1.33
2023-05-12T06:44:13.732Z,1.30
2023-05-12T06:46:47.904Z,1.55
2023-05-12T06:49:18.344Z,1.60
2023-05-12T06:51:48.797Z,1.20
2023-05-12T06:54:21.500Z,1.27
2023-05-12T07:05:16.354Z,1.33
2023-05-12T07:07:48.728Z,1.63
2023-05-12T07:10:22.022Z,1.50
2023-05-12T07:12:57.984Z,1.30
2023-05-12T07:15:32.488Z,1.65
2023-05-12T07:20:47.620Z,1.30
2023-05-12T07:23:19.283Z,1.30
2023-05-12T07:25:58.464Z,1.23
2023-05-12T07:28:45.431Z,1.17
2023-05-12T07:31:24.960Z,1.20
2023-05-12T07:36:29.597Z,1.17
2023-05-12T07:38:59.672Z,1.50
2023-05-12T07:41:35.017Z,1.33
2023-05-12T07:44:04.874Z,1.67
2023-05-12T07:46:37.880Z,1.20
2023-05-12T07:49:08.233Z,1.48
2023-05-12T07:51:40.423Z,1.20
2023-05-12T07:54:12.490Z,1.65
2023-05-12T07:57:00.792Z,1.58
2023-05-12T07:59:31.880Z,1.70
2023-05-12T08:02:03.965Z,1.80
2023-05-12T08:04:47.246Z,1.90
2023-05-12T08:07:25.583Z,2.08
2023-05-12T08:09:57.576Z,2.10
2023-05-12T08:12:36.130Z,2.67
2023-05-12T08:15:09.472Z,1.90
2023-05-12T08:17:52.780Z,1.77
2023-05-12T08:20:24.474Z,1.58
2023-05-12T08:22:54.172Z,1.48
2023-05-12T08:25:29.036Z,2.13
2023-05-12T08:28:09.648Z,2.22
2023-05-12T08:31:19.909Z,2.20
2023-05-12T08:34:02.734Z,2.67
2023-05-12T08:36:40.117Z,2.33
2023-05-12T08:39:13.900Z,2.33
2023-05-12T08:42:07.656Z,2.00
2023-05-12T08:44:39.043Z,1.90
2023-05-12T08:47:09.865Z,1.75
2023-05-12T08:49:41.596Z,1.73
2023-05-12T08:52:22.991Z,2.17
2023-05-12T08:54:56.423Z,1.58
2023-05-12T08:57:29.319Z,1.70
2023-05-12T09:00:05.667Z,1.58
2023-05-12T09:02:51.905Z,1.70
2023-05-12T09:05:23.754Z,1.40
2023-05-12T09:07:56.697Z,1.30
2023-05-12T09:10:34.548Z,1.48
2023-05-12T09:13:36.923Z,1.55
2023-05-12T09:16:13.398Z,1.85
2023-05-12T09:18:53.655Z,2.70
2023-05-12T09:21:25.448Z,1.40
2023-05-12T09:24:09.811Z,1.55
2023-05-12T09:26:50.084Z,1.95
2023-05-12T09:29:31.952Z,2.50
2023-05-12T09:32:08.148Z,2.80
2023-05-12T09:34:49.071Z,2.75
2023-05-12T09:37:23.326Z,2.50
2023-05-12T09:40:15.728Z,1.90
2023-05-12T09:42:49.879Z,1.90
2023-05-12T09:45:30.115Z,1.75
2023-05-12T09:48:14.170Z,1.58
2023-05-12T09:50:49.408Z,1.60
2023-05-12T09:53:23.680Z,1.92
2023-05-12T09:55:55.070Z,1.75
2023-05-12T09:58:28.516Z,1.83
2023-05-12T10:01:18.307Z,1.48
2023-05-12T10:03:58.146Z,1.38
2023-05-12T10:06:36.823Z,1.38
2023-05-12T10:09:34.858Z,1.30
2023-05-12T10:12:10.829Z,1.38
2023-05-12T10:14:47.318Z,1.67
2023-05-12T10:17:23.564Z,1.52
2023-05-12T10:19:58.523Z,1.45
2023-05-12T10:22:35.286Z,1.30
2023-05-12T10:25:06.569Z,1.25
2023-05-12T10:27:40.794Z,1.40
2023-05-12T10:30:25.513Z,1.55
2023-05-12T10:32:57.686Z,1.33
2023-05-12T10:35:35.133Z,1.30
2023-05-12T10:38:10.025Z,1.08
2023-05-12T10:41:00.920Z,1.10
2023-05-12T10:43:39.697Z,1.27
2023-05-12T10:46:30.151Z,1.92
2023-05-12T10:49:24.095Z,1.52
2023-05-12T10:52:01.821Z,1.48
2023-05-12T10:54:45.334Z,1.30
2023-05-12T10:58:15.441Z,1.52
2023-05-12T11:01:12.011Z,1.65
2023-05-12T11:03:51.313Z,1.40
2023-05-12T11:06:27.145Z,1.00
2023-05-12T11:08:58.831Z,1.20
2023-05-12T11:11:32.095Z,1.20
2023-05-12T11:14:05.791Z,1.20
2023-05-12T11:16:48.709Z,1.13
2023-05-12T11:19:20.083Z,1.38
2023-05-12T11:21:53.099Z,1.20
2023-05-12T11:24:27.840Z,1.23
2023-05-12T11:26:58.567Z,1.30
2023-05-12T11:29:31.061Z,1.40
2023-05-12T11:32:17.661Z,1.63
2023-05-12T11:34:50.417Z,1.35
2023-05-12T11:37:28.839Z,1.27
2023-05-12T11:39:59.824Z,1.20
2023-05-12T11:42:53.235Z,1.15
2023-05-12T11:45:32.194Z,1.33
2023-05-12T11:48:13.093Z,1.20
2023-05-12T11:50:49.897Z,1.05
2023-05-12T11:53:33.121Z,1.10
2023-05-12T11:56:08.800Z,1.23
2023-05-12T11:58:42.029Z,1.58
2023-05-12T12:01:14.524Z,1.27
2023-05-12T12:03:59.930Z,1.27
2023-05-12T12:06:29.705Z,1.35
2023-05-12T12:09:01.277Z,1.10
2023-05-12T12:11:31.800Z,1.52
2023-05-12T12:14:04.964Z,1.40
2023-05-12T12:16:40.079Z,1.55
2023-05-12T12:19:11.591Z,1.10
2023-05-12T12:21:44.335Z,1.10
2023-05-12T12:24:21.005Z,1.70
2023-05-12T12:26:54.727Z,1.30
2023-05-12T12:29:29.351Z,1.10
2023-05-12T12:31:58.824Z,1.48
2023-05-12T12:34:39.030Z,1.52
2023-05-12T12:37:15.677Z,1.05
2023-05-12T12:39:57.699Z,1.33
2023-05-12T12:42:56.874Z,1.27
2023-05-12T12:45:34.315Z,1.40
2023-05-12T12:48:03.611Z,1.30
2023-05-12T12:50:38.632Z,1.80
2023-05-12T12:53:23.722Z,1.38
2023-05-12T12:55:56.065Z,1.35
2023-05-12T12:58:29.729Z,1.33
2023-05-12T13:00:59.067Z,1.52
2023-05-12T13:03:28.334Z,1.40
2023-05-12T13:06:02.566Z,1.38
2023-05-12T13:08:38.096Z,1.52
2023-05-12T13:11:18.343Z,1.27
2023-05-12T13:14:09.007Z,1.10
2023-05-12T13:16:47.191Z,1.40
2023-05-12T13:19:46.112Z,1.50
2023-05-12T13:22:21.815Z,1.80
2023-05-12T13:25:19.524Z,1.40
2023-05-12T13:28:03.207Z,1.50
2023-05-12T13:30:39.524Z,2.03
2023-05-12T13:35:57.376Z,1.40
2023-05-12T13:38:32.228Z,1.50
2023-05-12T13:41:11.959Z,1.30
2023-05-12T13:43:42.481Z,1.50
2023-05-12T13:46:17.938Z,1.50
2023-05-12T13:48:48.132Z,1.67
2023-05-12T13:51:21.046Z,1.50
2023-05-12T13:53:59.129Z,1.67
2023-05-12T13:56:29.024Z,1.30
2023-05-12T13:58:59.275Z,1.83
2023-05-12T14:01:38.584Z,1.67
2023-05-12T14:04:19.168Z,1.50
2023-05-12T14:06:56.842Z,1.65
2023-05-12T14:09:32.358Z,1.30
2023-05-12T14:12:03.700Z,1.60
2023-05-12T14:15:01.913Z,2.13
2023-05-12T14:17:38.057Z,1.27
2023-05-12T14:20:15.184Z,1.55
2023-05-12T14:22:44.489Z,1.70
2023-05-12T14:25:14.508Z,1.98
2023-05-12T14:27:47.229Z,1.70
2023-05-12T14:30:20.662Z,1.70
2023-05-12T14:33:04.181Z,1.52
2023-05-12T14:35:43.255Z,1.50
2023-05-12T14:38:15.640Z,1.40
2023-05-12T14:40:50.306Z,1.45
2023-05-12T14:43:21.944Z,1.85
2023-05-12T14:45:55.727Z,1.48
2023-05-12T14:48:31.530Z,1.45
2023-05-12T14:51:01.963Z,1.40
2023-05-12T14:53:32.883Z,1.40
2023-05-12T14:56:03.627Z,1.48
2023-05-12T14:58:34.153Z,3.72
2023-05-12T15:01:09.558Z,1.63
2023-05-12T15:03:39.756Z,1.40
2023-05-12T15:06:09.464Z,1.50
2023-05-12T15:08:41.619Z,1.60
2023-05-12T15:11:12.022Z,1.48
2023-05-12T15:13:41.356Z,1.50
2023-05-12T15:16:14.006Z,1.98
2023-05-12T15:18:43.608Z,1.50
2023-05-12T15:21:12.715Z,1.48
2023-05-12T15:23:44.977Z,1.40
2023-05-12T15:26:31.978Z,1.30
2023-05-12T15:29:03.350Z,1.52
2023-05-12T15:31:34.494Z,1.58
2023-05-12T15:34:07.476Z,1.98
2023-05-12T15:36:37.180Z,1.77
2023-05-12T15:39:09.092Z,1.80
2023-05-12T15:41:38.976Z,1.55
2023-05-12T15:44:13.277Z,1.45
2023-05-12T15:46:52.934Z,1.52
2023-05-12T15:49:22.850Z,1.30
2023-05-12T15:51:57.066Z,1.80
2023-05-12T15:54:33.442Z,1.40
2023-05-12T15:57:12.152Z,1.40
2023-05-12T15:59:49.146Z,1.33
2023-05-12T16:02:26.070Z,1.35
2023-05-12T16:04:55.363Z,1.52
2023-05-12T16:07:30.421Z,1.30
2023-05-12T16:10:05.983Z,1.40
2023-05-12T16:12:36.155Z,1.40
2023-05-12T16:15:06.461Z,1.33
2023-05-12T16:17:40.886Z,2.55
2023-05-12T16:20:11.239Z,1.27
2023-05-12T16:22:41.278Z,1.67
2023-05-12T16:25:10.826Z,1.27
2023-05-12T16:27:39.955Z,1.42
2023-05-12T16:30:10.091Z,1.30
2023-05-12T16:32:50.939Z,1.27
2023-05-12T16:35:22.755Z,1.40
2023-05-12T16:37:52.345Z,1.20
2023-05-12T16:40:23.846Z,1.42
2023-05-12T16:42:56.917Z,1.50
2023-05-12T16:45:29.216Z,1.48
2023-05-12T16:47:59.967Z,1.38
2023-05-12T16:50:29.673Z,1.35
2023-05-12T16:52:59.611Z,1.40
2023-05-12T16:55:31.640Z,1.50
2023-05-12T16:58:01.192Z,1.20
2023-05-12T17:00:32.097Z,1.30
2023-05-12T17:03:03.844Z,1.42
2023-05-12T17:05:34.188Z,1.52
2023-05-12T17:08:04.578Z,1.40
2023-05-12T17:10:42.155Z,1.70
2023-05-12T17:13:11.868Z,1.40
2023-05-12T17:15:44.932Z,1.40
2023-05-12T17:18:14.347Z,1.50
2023-05-12T17:20:44.369Z,1.50
2023-05-12T17:23:22.263Z,1.42
2023-05-12T17:25:55.144Z,1.48
2023-05-12T17:28:28.064Z,1.65
2023-05-12T17:30:58.549Z,1.00
2023-05-12T17:33:38.761Z,1.40
2023-05-12T17:36:12.774Z,1.35
2023-05-12T17:38:44.175Z,1.52
2023-05-12T17:41:17.616Z,1.10
2023-05-12T17:43:50.402Z,1.30
2023-05-12T17:46:22.450Z,1.52
2023-05-12T17:48:54.697Z,2.03
2023-05-12T17:51:25.619Z,1.58
2023-05-12T17:53:55.866Z,1.48
2023-05-12T17:56:31.511Z,1.15
2023-05-12T17:59:05.448Z,1.60
2023-05-12T18:01:45.144Z,1.63
2023-05-12T18:04:18.587Z,1.33
2023-05-12T18:06:51.089Z,1.45
2023-05-12T18:09:24.442Z,1.58
2023-05-12T18:11:54.444Z,1.42
2023-05-12T18:14:26.191Z,1.73
2023-05-12T18:16:56.554Z,1.58
2023-05-12T18:19:29.110Z,1.42
2023-05-12T18:22:00.049Z,1.55
2023-05-12T18:24:32.756Z,1.27
2023-05-12T18:27:06.533Z,1.20
2023-05-12T18:29:38.935Z,1.35
2023-05-12T18:32:10.469Z,1.20
2023-05-12T18:34:46.328Z,1.08
2023-05-12T18:37:23.271Z,1.50
2023-05-12T18:39:57.173Z,1.33
2023-05-12T18:42:47.542Z,1.40
2023-05-12T18:45:17.186Z,1.52
2023-05-12T18:47:49.254Z,1.38
2023-05-12T18:50:18.983Z,1.25
2023-05-12T18:52:56.251Z,1.13
2023-05-12T18:55:30.125Z,1.33
2023-05-12T18:58:04.515Z,1.65
2023-05-12T19:01:01.247Z,1.20
2023-05-12T19:03:45.320Z,1.20
2023-05-12T19:06:29.822Z,1.35
2023-05-12T19:09:15.582Z,1.50
2023-05-12T19:11:48.076Z,1.20
2023-05-12T19:14:28.814Z,1.50
2023-05-12T19:17:01.491Z,1.33
2023-05-12T19:19:34.644Z,1.50
2023-05-12T19:22:13.095Z,1.95
2023-05-12T19:24:51.795Z,1.97
2023-05-12T19:27:27.950Z,1.23
2023-05-12T19:30:06.675Z,1.65
2023-05-12T19:32:38.932Z,1.25
2023-05-12T19:35:24.578Z,1.42
2023-05-12T19:37:59.653Z,1.25
2023-05-12T19:40:37.958Z,1.20
2023-05-12T19:43:11.670Z,1.40
2023-05-12T19:45:49.251Z,1.20
2023-05-12T19:48:21.840Z,1.48
2023-05-12T19:51:01.313Z,1.08
2023-05-12T19:53:33.708Z,1.10
2023-05-12T19:56:11.617Z,1.02
2023-05-12T19:58:44.278Z,1.20
2023-05-12T20:01:16.643Z,1.30
2023-05-12T20:03:51.940Z,1.15
2023-05-12T20:06:27.177Z,1.40
2023-05-12T20:08:56.800Z,1.20
2023-05-12T20:11:29.062Z,1.55
2023-05-12T20:14:00.444Z,1.30
2023-05-12T20:16:35.163Z,1.48
2023-05-12T20:19:11.088Z,1.15
2023-05-12T20:24:59.458Z,1.40
2023-05-12T20:27:22.080Z,1.25
2023-05-12T20:29:55.039Z,1.30
2023-05-12T20:32:25.888Z,1.30
2023-05-12T20:39:46.938Z,1.40
2023-05-12T20:42:19.699Z,1.30
2023-05-12T20:44:58.370Z,1.30
2023-05-12T20:47:38.516Z,1.33
2023-05-12T20:50:09.277Z,1.55
2023-05-12T21:04:32.738Z,1.30
2023-05-12T21:10:47.695Z,1.30
2023-05-12T21:13:53.659Z,1.38
2023-05-12T21:16:59.498Z,1.50
2023-05-12T21:20:28.924Z,1.40
2023-05-12T21:30:05.445Z,1.20
2023-05-12T21:32:41.842Z,1.55
2023-05-12T21:35:28.047Z,1.30
2023-05-12T21:38:01.297Z,1.10
2023-05-12T21:40:32.284Z,1.17
2023-05-12T21:43:30.124Z,1.05
2023-05-12T21:46:07.488Z,1.15
2023-05-12T21:48:45.394Z,1.17
2023-05-12T21:55:35.824Z,1.00
2023-05-12T21:59:08.794Z,1.00
2023-05-12T22:02:21.041Z,0.88
2023-05-12T22:04:55.971Z,1.02
2023-05-12T22:07:57.741Z,1.10
2023-05-12T22:10:39.996Z,1.27
2023-05-12T22:13:26.643Z,1.05
2023-05-12T22:19:28.984Z,0.95
2023-05-12T22:22:25.033Z,0.85
2023-05-12T22:25:24.526Z,1.10
2023-05-12T22:28:16.840Z,1.05
2023-05-12T22:30:52.513Z,0.82
2023-05-12T22:33:38.644Z,1.25
2023-05-12T22:37:25.382Z,1.00
2023-05-12T22:40:43.131Z,1.00
2023-05-12T22:44:00.005Z,1.00
2023-05-12T22:46:57.059Z,1.10
2023-05-12T22:49:38.195Z,1.10
2023-05-12T22:53:15.560Z,1.30
2023-05-12T22:56:40.959Z,0.90
2023-05-12T22:59:12.032Z,1.23
2023-05-12T23:02:21.862Z,1.02
2023-05-12T23:05:36.822Z,1.00
2023-05-12T23:08:12.286Z,0.80
2023-05-12T23:11:18.104Z,0.90
2023-05-12T23:15:16.633Z,0.90
2023-05-12T23:18:42.545Z,1.00
2023-05-12T23:21:50.986Z,1.27
2023-05-12T23:24:48.577Z,1.33
2023-05-12T23:27:39.962Z,1.30
2023-05-12T23:30:30.045Z,1.00
2023-05-12T23:33:33.098Z,1.30
2023-05-12T23:36:11.930Z,1.23
2023-05-12T23:40:02.732Z,1.10
2023-05-12T23:43:23.910Z,1.13
2023-05-12T23:45:37.120Z,1.08
2023-05-12T23:48:43.539Z,1.30
2023-05-12T23:51:36.604Z,1.10
2023-05-12T23:54:36.393Z,1.10
2023-05-12T23:57:43.620Z,1.23
